Airfield :
LOGIN :

Register | Disclaimer

   EN    FR    IT 

 










Legend :    VFR   Marginal VFR   IFR   Intensive IFR   Very Intensive IFR
Visi :
Ceiling :
>= 8 km
>= 3000ft
5 to 8 km
1000 to 3000 ft
1500m to 5 km
500 to 1000 ft
800 to 1500m
200 to 500 ft
< 800m
< 200 ft
Symbols :   Thunderstorms  Fog  Heavy snow  Heavy precipitations  Wind > 20 kt
SIGMETs :     Misc.  Thunderstorms  Icing  Turbulence  Mountain Waves  Volcanic Ashes






- Airport Elevation : 353 ft
- IATA code : LIN


LIML - Milano Linate

CURRENT METAR :
  • 021320Z 13005KT 080V160 9999 BKN060 08/04 Q1018 NOSIG

EXPIRED METARs :
  • 021250Z 11004KT 060V160 9999 FEW020 BKN060 08/04 Q1018 NOSIG
  • 021220Z 12005KT 090V150 9999 FEW020 BKN060 07/04 Q1018 NOSIG
  • 021150Z 12004KT 090V150 9999 BKN060 07/04 Q1018 NOSIG
  • 021120Z 13005KT 9999 BKN060 08/04 Q1018 NOSIG
  • 021050Z 13007KT 9999 FEW015 BKN060 07/04 Q1019 NOSIG

TAF TAF LIML
Valid from the 02 at 12:00 until the 03 at 12:00 UTC


021100Z 0212/0312 08005KT 8000 BKN060
BECMG 0216/0218 4000 DZ BR BKN014
BECMG 0306/0308 3000 RA BR



MET'MAP, your aeronautical weather chart ! - Copyright ORBIFLY December 2007 - Disclaimer

ORBIFLY MET'MAP TEAM :

Programming & Development : Alexandra Zaïnal
Original concept : Baudouin d'Aumeries
Technical & hardware support : Manuel Goepfert
Assistance : Marc-Olivier Méhu




SOURCES & CREDITS :

   NOAA